sensor_id;sensor_type;location;lat;lon;timestamp;P1;durP1;ratioP1;P2;durP2;ratioP2
66886;SDS011;67239;51.680;5.976;2024-02-26T00:01:25;5.50;;;2.35;;
66886;SDS011;67239;51.680;5.976;2024-02-26T00:04:11;4.35;;;2.50;;
66886;SDS011;67239;51.680;5.976;2024-02-26T00:07:01;4.45;;;2.40;;
66886;SDS011;67239;51.680;5.976;2024-02-26T00:09:58;3.30;;;2.28;;
66886;SDS011;67239;51.680;5.976;2024-02-26T00:13:14;4.05;;;2.40;;
66886;SDS011;67239;51.680;5.976;2024-02-26T00:16:13;3.95;;;2.35;;
66886;SDS011;67239;51.680;5.976;2024-02-26T00:19:00;3.08;;;2.10;;
66886;SDS011;67239;51.680;5.976;2024-02-26T00:21:40;3.60;;;2.50;;
66886;SDS011;67239;51.680;5.976;2024-02-26T00:24:33;3.33;;;2.50;;
66886;SDS011;67239;51.680;5.976;2024-02-26T00:27:54;5.07;;;2.67;;
66886;SDS011;67239;51.680;5.976;2024-02-26T00:31:09;4.05;;;2.40;;
66886;SDS011;67239;51.680;5.976;2024-02-26T00:34:26;4.35;;;2.30;;
66886;SDS011;67239;51.680;5.976;2024-02-26T00:38:09;3.35;;;2.25;;
66886;SDS011;67239;51.680;5.976;2024-02-26T00:41:14;3.83;;;2.85;;
66886;SDS011;67239;51.680;5.976;2024-02-26T00:44:47;3.85;;;2.70;;
66886;SDS011;67239;51.680;5.976;2024-02-26T00:47:36;3.65;;;2.60;;
66886;SDS011;67239;51.680;5.976;2024-02-26T00:50:45;3.85;;;2.53;;
66886;SDS011;67239;51.680;5.976;2024-02-26T00:53:44;4.78;;;2.90;;
66886;SDS011;67239;51.680;5.976;2024-02-26T00:56:35;4.55;;;2.95;;
66886;SDS011;67239;51.680;5.976;2024-02-26T00:59:35;5.20;;;2.60;;
66886;SDS011;67239;51.680;5.976;2024-02-26T01:03:14;4.90;;;2.90;;
66886;SDS011;67239;51.680;5.976;2024-02-26T01:06:07;3.38;;;2.53;;
66886;SDS011;67239;51.680;5.976;2024-02-26T01:09:06;5.97;;;2.83;;
66886;SDS011;67239;51.680;5.976;2024-02-26T01:12:03;3.92;;;2.58;;
66886;SDS011;67239;51.680;5.976;2024-02-26T01:15:20;4.28;;;2.88;;
66886;SDS011;67239;51.680;5.976;2024-02-26T01:18:07;8.20;;;2.58;;
66886;SDS011;67239;51.680;5.976;2024-02-26T01:21:36;4.80;;;2.97;;
66886;SDS011;67239;51.680;5.976;2024-02-26T01:24:11;3.25;;;2.63;;
66886;SDS011;67239;51.680;5.976;2024-02-26T01:27:10;3.75;;;2.63;;
66886;SDS011;67239;51.680;5.976;2024-02-26T01:29:58;6.10;;;2.75;;
66886;SDS011;67239;51.680;5.976;2024-02-26T01:32:53;4.13;;;2.72;;
66886;SDS011;67239;51.680;5.976;2024-02-26T01:36:07;6.68;;;2.67;;
66886;SDS011;67239;51.680;5.976;2024-02-26T01:39:08;3.20;;;2.53;;
66886;SDS011;67239;51.680;5.976;2024-02-26T01:42:01;3.63;;;2.72;;
66886;SDS011;67239;51.680;5.976;2024-02-26T01:45:30;3.95;;;2.78;;
66886;SDS011;67239;51.680;5.976;2024-02-26T01:48:24;4.60;;;2.70;;
66886;SDS011;67239;51.680;5.976;2024-02-26T01:51:43;4.32;;;2.67;;
66886;SDS011;67239;51.680;5.976;2024-02-26T01:54:50;4.90;;;2.65;;
66886;SDS011;67239;51.680;5.976;2024-02-26T01:58:04;4.13;;;2.80;;
66886;SDS011;67239;51.680;5.976;2024-02-26T02:01:07;3.40;;;2.65;;
66886;SDS011;67239;51.680;5.976;2024-02-26T02:04:01;4.40;;;3.08;;
66886;SDS011;67239;51.680;5.976;2024-02-26T02:06:47;3.55;;;2.70;;
66886;SDS011;67239;51.680;5.976;2024-02-26T02:10:22;5.20;;;3.10;;
66886;SDS011;67239;51.680;5.976;2024-02-26T02:13:14;4.18;;;3.10;;
66886;SDS011;67239;51.680;5.976;2024-02-26T02:16:43;5.63;;;3.10;;
66886;SDS011;67239;51.680;5.976;2024-02-26T02:19:59;4.30;;;3.13;;
66886;SDS011;67239;51.680;5.976;2024-02-26T02:23:15;4.40;;;3.25;;
66886;SDS011;67239;51.680;5.976;2024-02-26T02:26:25;4.10;;;2.97;;
66886;SDS011;67239;51.680;5.976;2024-02-26T02:30:14;4.68;;;3.00;;
66886;SDS011;67239;51.680;5.976;2024-02-26T02:33:45;4.60;;;2.97;;
66886;SDS011;67239;51.680;5.976;2024-02-26T02:36:52;6.03;;;3.10;;
66886;SDS011;67239;51.680;5.976;2024-02-26T02:40:26;4.82;;;2.63;;
66886;SDS011;67239;51.680;5.976;2024-02-26T02:43:28;3.63;;;2.50;;
66886;SDS011;67239;51.680;5.976;2024-02-26T02:47:20;4.15;;;2.88;;
66886;SDS011;67239;51.680;5.976;2024-02-26T02:51:07;3.15;;;2.65;;
66886;SDS011;67239;51.680;5.976;2024-02-26T02:54:30;4.30;;;2.65;;
66886;SDS011;67239;51.680;5.976;2024-02-26T02:57:53;5.40;;;3.07;;
66886;SDS011;67239;51.680;5.976;2024-02-26T03:01:27;3.13;;;2.40;;
66886;SDS011;67239;51.680;5.976;2024-02-26T03:04:53;4.03;;;2.88;;
66886;SDS011;67239;51.680;5.976;2024-02-26T03:08:13;3.92;;;2.75;;
66886;SDS011;67239;51.680;5.976;2024-02-26T03:11:31;3.60;;;2.85;;
66886;SDS011;67239;51.680;5.976;2024-02-26T03:14:47;4.82;;;2.70;;
66886;SDS011;67239;51.680;5.976;2024-02-26T03:18:35;3.65;;;2.65;;
66886;SDS011;67239;51.680;5.976;2024-02-26T03:22:29;4.60;;;3.03;;
66886;SDS011;67239;51.680;5.976;2024-02-26T03:26:06;3.90;;;2.92;;
66886;SDS011;67239;51.680;5.976;2024-02-26T03:29:30;4.35;;;3.25;;
66886;SDS011;67239;51.680;5.976;2024-02-26T03:32:47;4.65;;;2.53;;
66886;SDS011;67239;51.680;5.976;2024-02-26T03:36:05;4.72;;;2.95;;
66886;SDS011;67239;51.680;5.976;2024-02-26T03:40:08;5.38;;;2.70;;
66886;SDS011;67239;51.680;5.976;2024-02-26T03:47:56;4.65;;;3.42;;
66886;SDS011;67239;51.680;5.976;2024-02-26T03:51:09;4.43;;;2.90;;
66886;SDS011;67239;51.680;5.976;2024-02-26T03:54:42;4.10;;;2.97;;
66886;SDS011;67239;51.680;5.976;2024-02-26T03:58:35;3.40;;;2.35;;
66886;SDS011;67239;51.680;5.976;2024-02-26T04:02:40;5.18;;;3.60;;
66886;SDS011;67239;51.680;5.976;2024-02-26T04:06:08;6.25;;;3.38;;
66886;SDS011;67239;51.680;5.976;2024-02-26T04:10:02;4.93;;;3.63;;
66886;SDS011;67239;51.680;5.976;2024-02-26T04:13:06;4.13;;;3.00;;
66886;SDS011;67239;51.680;5.976;2024-02-26T04:17:15;4.10;;;2.67;;
66886;SDS011;67239;51.680;5.976;2024-02-26T04:21:00;6.40;;;3.40;;
66886;SDS011;67239;51.680;5.976;2024-02-26T04:24:54;6.13;;;3.40;;
66886;SDS011;67239;51.680;5.976;2024-02-26T04:28:08;4.93;;;3.33;;
66886;SDS011;67239;51.680;5.976;2024-02-26T04:31:53;5.00;;;3.20;;
66886;SDS011;67239;51.680;5.976;2024-02-26T04:35:24;5.22;;;2.95;;
66886;SDS011;67239;51.680;5.976;2024-02-26T04:38:56;6.25;;;3.17;;
66886;SDS011;67239;51.680;5.976;2024-02-26T04:42:48;5.80;;;3.22;;
66886;SDS011;67239;51.680;5.976;2024-02-26T04:46:10;4.10;;;2.97;;
66886;SDS011;67239;51.680;5.976;2024-02-26T04:49:08;4.10;;;2.90;;
66886;SDS011;67239;51.680;5.976;2024-02-26T04:51:56;4.28;;;2.60;;
66886;SDS011;67239;51.680;5.976;2024-02-26T04:55:57;3.17;;;2.47;;
66886;SDS011;67239;51.680;5.976;2024-02-26T04:59:34;4.35;;;2.30;;
66886;SDS011;67239;51.680;5.976;2024-02-26T05:03:09;4.85;;;2.67;;
66886;SDS011;67239;51.680;5.976;2024-02-26T05:06:33;4.68;;;3.20;;
66886;SDS011;67239;51.680;5.976;2024-02-26T05:09:40;3.72;;;2.55;;
66886;SDS011;67239;51.680;5.976;2024-02-26T05:13:05;5.60;;;3.00;;
66886;SDS011;67239;51.680;5.976;2024-02-26T05:16:20;5.45;;;3.03;;
66886;SDS011;67239;51.680;5.976;2024-02-26T05:19:24;4.10;;;2.45;;
66886;SDS011;67239;51.680;5.976;2024-02-26T05:22:35;3.58;;;2.60;;
66886;SDS011;67239;51.680;5.976;2024-02-26T05:25:57;3.10;;;2.60;;
66886;SDS011;67239;51.680;5.976;2024-02-26T05:30:03;4.90;;;2.42;;
66886;SDS011;67239;51.680;5.976;2024-02-26T05:34:01;5.13;;;2.45;;
66886;SDS011;67239;51.680;5.976;2024-02-26T05:37:20;4.82;;;2.58;;
66886;SDS011;67239;51.680;5.976;2024-02-26T05:40:56;4.90;;;2.40;;
66886;SDS011;67239;51.680;5.976;2024-02-26T05:52:39;4.60;;;3.33;;
66886;SDS011;67239;51.680;5.976;2024-02-26T05:55:06;4.43;;;3.15;;
66886;SDS011;67239;51.680;5.976;2024-02-26T05:57:36;4.30;;;2.90;;
66886;SDS011;67239;51.680;5.976;2024-02-26T06:00:03;5.05;;;2.95;;
66886;SDS011;67239;51.680;5.976;2024-02-26T06:02:38;4.03;;;2.80;;
66886;SDS011;67239;51.680;5.976;2024-02-26T06:05:05;6.63;;;3.60;;
66886;SDS011;67239;51.680;5.976;2024-02-26T06:07:34;4.72;;;3.22;;
66886;SDS011;67239;51.680;5.976;2024-02-26T06:10:01;5.80;;;3.50;;
66886;SDS011;67239;51.680;5.976;2024-02-26T06:12:31;4.25;;;3.20;;
66886;SDS011;67239;51.680;5.976;2024-02-26T06:14:59;5.50;;;3.50;;
66886;SDS011;67239;51.680;5.976;2024-02-26T06:17:28;5.40;;;3.50;;
66886;SDS011;67239;51.680;5.976;2024-02-26T06:19:55;4.95;;;3.97;;
66886;SDS011;67239;51.680;5.976;2024-02-26T06:22:22;5.38;;;3.88;;
66886;SDS011;67239;51.680;5.976;2024-02-26T06:24:49;4.03;;;3.30;;
66886;SDS011;67239;51.680;5.976;2024-02-26T06:27:16;4.43;;;3.20;;
66886;SDS011;67239;51.680;5.976;2024-02-26T06:29:44;5.05;;;3.70;;
66886;SDS011;67239;51.680;5.976;2024-02-26T06:32:11;4.22;;;3.40;;
66886;SDS011;67239;51.680;5.976;2024-02-26T06:34:38;6.40;;;3.92;;
66886;SDS011;67239;51.680;5.976;2024-02-26T06:37:07;5.55;;;4.00;;
66886;SDS011;67239;51.680;5.976;2024-02-26T06:39:35;6.20;;;4.22;;
66886;SDS011;67239;51.680;5.976;2024-02-26T06:42:02;9.00;;;3.63;;
66886;SDS011;67239;51.680;5.976;2024-02-26T06:44:29;5.45;;;4.15;;
66886;SDS011;67239;51.680;5.976;2024-02-26T06:46:58;5.55;;;3.75;;
66886;SDS011;67239;51.680;5.976;2024-02-26T06:49:26;4.82;;;3.60;;
66886;SDS011;67239;51.680;5.976;2024-02-26T06:51:56;4.97;;;3.70;;
66886;SDS011;67239;51.680;5.976;2024-02-26T06:54:23;4.45;;;3.22;;
66886;SDS011;67239;51.680;5.976;2024-02-26T06:56:50;4.93;;;3.70;;
66886;SDS011;67239;51.680;5.976;2024-02-26T06:59:17;5.65;;;3.60;;
66886;SDS011;67239;51.680;5.976;2024-02-26T07:01:46;5.03;;;3.53;;
66886;SDS011;67239;51.680;5.976;2024-02-26T07:04:13;5.60;;;3.65;;
66886;SDS011;67239;51.680;5.976;2024-02-26T07:06:40;6.28;;;3.33;;
66886;SDS011;67239;51.680;5.976;2024-02-26T07:09:09;4.30;;;3.38;;
66886;SDS011;67239;51.680;5.976;2024-02-26T07:11:39;4.15;;;3.10;;
66886;SDS011;67239;51.680;5.976;2024-02-26T07:14:09;4.65;;;3.30;;
66886;SDS011;67239;51.680;5.976;2024-02-26T07:16:37;4.53;;;3.30;;
66886;SDS011;67239;51.680;5.976;2024-02-26T07:19:04;6.03;;;3.63;;
66886;SDS011;67239;51.680;5.976;2024-02-26T07:21:32;4.57;;;3.67;;
66886;SDS011;67239;51.680;5.976;2024-02-26T07:23:59;6.13;;;4.00;;
66886;SDS011;67239;51.680;5.976;2024-02-26T07:26:26;5.45;;;3.63;;
66886;SDS011;67239;51.680;5.976;2024-02-26T07:28:53;5.28;;;4.05;;
66886;SDS011;67239;51.680;5.976;2024-02-26T07:31:20;4.88;;;3.45;;
66886;SDS011;67239;51.680;5.976;2024-02-26T07:33:47;5.85;;;3.72;;
66886;SDS011;67239;51.680;5.976;2024-02-26T07:36:14;4.90;;;3.63;;
66886;SDS011;67239;51.680;5.976;2024-02-26T07:38:41;4.07;;;3.38;;
66886;SDS011;67239;51.680;5.976;2024-02-26T07:41:11;5.32;;;3.97;;
66886;SDS011;67239;51.680;5.976;2024-02-26T07:43:38;5.30;;;3.97;;
66886;SDS011;67239;51.680;5.976;2024-02-26T07:46:05;4.03;;;3.22;;
66886;SDS011;67239;51.680;5.976;2024-02-26T07:48:33;6.70;;;4.05;;
66886;SDS011;67239;51.680;5.976;2024-02-26T07:51:00;4.85;;;3.83;;
66886;SDS011;67239;51.680;5.976;2024-02-26T07:53:30;4.80;;;3.30;;
66886;SDS011;67239;51.680;5.976;2024-02-26T07:55:57;4.32;;;3.17;;
66886;SDS011;67239;51.680;5.976;2024-02-26T07:58:24;4.72;;;3.58;;
66886;SDS011;67239;51.680;5.976;2024-02-26T08:00:51;4.80;;;3.60;;
66886;SDS011;67239;51.680;5.976;2024-02-26T08:03:18;5.13;;;4.20;;
66886;SDS011;67239;51.680;5.976;2024-02-26T08:05:45;4.97;;;4.28;;
66886;SDS011;67239;51.680;5.976;2024-02-26T08:08:13;4.32;;;3.63;;
66886;SDS011;67239;51.680;5.976;2024-02-26T08:10:40;5.57;;;4.30;;
66886;SDS011;67239;51.680;5.976;2024-02-26T08:13:07;7.10;;;4.10;;
66886;SDS011;67239;51.680;5.976;2024-02-26T08:15:35;6.05;;;4.15;;
66886;SDS011;67239;51.680;5.976;2024-02-26T08:18:04;5.72;;;3.90;;
66886;SDS011;67239;51.680;5.976;2024-02-26T08:20:32;4.85;;;3.50;;
66886;SDS011;67239;51.680;5.976;2024-02-26T08:22:59;6.57;;;3.40;;
66886;SDS011;67239;51.680;5.976;2024-02-26T08:25:26;5.15;;;3.67;;
66886;SDS011;67239;51.680;5.976;2024-02-26T08:27:53;5.45;;;3.75;;
66886;SDS011;67239;51.680;5.976;2024-02-26T08:30:20;5.50;;;3.97;;
66886;SDS011;67239;51.680;5.976;2024-02-26T08:32:48;6.60;;;4.43;;
66886;SDS011;67239;51.680;5.976;2024-02-26T08:35:18;5.85;;;4.30;;
66886;SDS011;67239;51.680;5.976;2024-02-26T08:37:46;4.70;;;3.67;;
66886;SDS011;67239;51.680;5.976;2024-02-26T08:40:14;6.28;;;3.63;;
66886;SDS011;67239;51.680;5.976;2024-02-26T08:42:42;6.45;;;4.68;;
66886;SDS011;67239;51.680;5.976;2024-02-26T08:45:09;5.20;;;3.55;;
66886;SDS011;67239;51.680;5.976;2024-02-26T08:47:39;4.97;;;3.88;;
66886;SDS011;67239;51.680;5.976;2024-02-26T08:50:06;5.93;;;4.35;;
66886;SDS011;67239;51.680;5.976;2024-02-26T08:52:36;6.43;;;3.90;;
66886;SDS011;67239;51.680;5.976;2024-02-26T08:55:03;6.35;;;3.78;;
66886;SDS011;67239;51.680;5.976;2024-02-26T08:57:31;5.05;;;3.47;;
66886;SDS011;67239;51.680;5.976;2024-02-26T09:00:01;4.97;;;3.53;;
66886;SDS011;67239;51.680;5.976;2024-02-26T09:02:28;6.13;;;4.38;;
66886;SDS011;67239;51.680;5.976;2024-02-26T09:04:55;6.25;;;4.45;;
66886;SDS011;67239;51.680;5.976;2024-02-26T09:07:23;4.72;;;3.60;;
66886;SDS011;67239;51.680;5.976;2024-02-26T09:09:50;5.40;;;3.83;;
66886;SDS011;67239;51.680;5.976;2024-02-26T09:12:17;4.60;;;3.55;;
66886;SDS011;67239;51.680;5.976;2024-02-26T09:14:45;5.85;;;4.00;;
66886;SDS011;67239;51.680;5.976;2024-02-26T09:17:12;7.22;;;3.40;;
66886;SDS011;67239;51.680;5.976;2024-02-26T09:19:39;5.55;;;3.58;;
66886;SDS011;67239;51.680;5.976;2024-02-26T09:22:06;5.55;;;3.97;;
66886;SDS011;67239;51.680;5.976;2024-02-26T09:24:33;6.45;;;4.40;;
66886;SDS011;67239;51.680;5.976;2024-02-26T09:27:00;5.13;;;3.80;;
66886;SDS011;67239;51.680;5.976;2024-02-26T09:29:27;5.22;;;4.13;;
66886;SDS011;67239;51.680;5.976;2024-02-26T09:31:55;6.10;;;4.03;;
66886;SDS011;67239;51.680;5.976;2024-02-26T09:34:22;5.35;;;3.95;;
66886;SDS011;67239;51.680;5.976;2024-02-26T09:36:49;5.95;;;3.83;;
66886;SDS011;67239;51.680;5.976;2024-02-26T09:39:16;4.80;;;3.63;;
66886;SDS011;67239;51.680;5.976;2024-02-26T09:41:48;5.65;;;3.75;;
66886;SDS011;67239;51.680;5.976;2024-02-26T09:44:18;6.28;;;4.53;;
66886;SDS011;67239;51.680;5.976;2024-02-26T09:46:47;6.57;;;4.78;;
66886;SDS011;67239;51.680;5.976;2024-02-26T09:49:21;6.72;;;4.22;;
66886;SDS011;67239;51.680;5.976;2024-02-26T09:51:51;7.43;;;4.47;;
66886;SDS011;67239;51.680;5.976;2024-02-26T09:54:20;7.72;;;5.22;;
66886;SDS011;67239;51.680;5.976;2024-02-26T09:56:48;7.15;;;5.63;;
66886;SDS011;67239;51.680;5.976;2024-02-26T09:59:29;8.32;;;5.22;;
66886;SDS011;67239;51.680;5.976;2024-02-26T10:02:16;8.00;;;5.80;;
66886;SDS011;67239;51.680;5.976;2024-02-26T10:04:47;6.85;;;5.00;;
66886;SDS011;67239;51.680;5.976;2024-02-26T10:07:18;8.63;;;5.78;;
66886;SDS011;67239;51.680;5.976;2024-02-26T10:09:47;8.75;;;5.50;;
66886;SDS011;67239;51.680;5.976;2024-02-26T10:12:14;6.45;;;4.97;;
66886;SDS011;67239;51.680;5.976;2024-02-26T10:14:44;8.55;;;5.00;;
66886;SDS011;67239;51.680;5.976;2024-02-26T10:17:11;8.25;;;6.53;;
66886;SDS011;67239;51.680;5.976;2024-02-26T10:19:38;7.03;;;5.28;;
66886;SDS011;67239;51.680;5.976;2024-02-26T10:22:06;8.43;;;6.13;;
66886;SDS011;67239;51.680;5.976;2024-02-26T10:24:33;9.40;;;5.78;;
66886;SDS011;67239;51.680;5.976;2024-02-26T10:27:02;8.50;;;6.40;;
66886;SDS011;67239;51.680;5.976;2024-02-26T10:29:30;8.82;;;6.53;;
66886;SDS011;67239;51.680;5.976;2024-02-26T10:31:57;8.10;;;6.07;;
66886;SDS011;67239;51.680;5.976;2024-02-26T10:34:25;8.68;;;5.85;;
66886;SDS011;67239;51.680;5.976;2024-02-26T10:36:53;10.10;;;7.10;;
66886;SDS011;67239;51.680;5.976;2024-02-26T10:39:21;10.30;;;7.28;;
66886;SDS011;67239;51.680;5.976;2024-02-26T10:41:49;10.70;;;7.20;;
66886;SDS011;67239;51.680;5.976;2024-02-26T10:44:17;9.07;;;6.47;;
66886;SDS011;67239;51.680;5.976;2024-02-26T10:46:48;10.73;;;7.25;;
66886;SDS011;67239;51.680;5.976;2024-02-26T10:49:19;13.15;;;6.55;;
66886;SDS011;67239;51.680;5.976;2024-02-26T10:51:54;10.93;;;7.22;;
66886;SDS011;67239;51.680;5.976;2024-02-26T10:54:25;8.60;;;6.28;;
66886;SDS011;67239;51.680;5.976;2024-02-26T10:56:56;9.43;;;6.30;;
66886;SDS011;67239;51.680;5.976;2024-02-26T10:59:25;11.55;;;8.07;;
66886;SDS011;67239;51.680;5.976;2024-02-26T11:01:53;12.50;;;8.35;;
66886;SDS011;67239;51.680;5.976;2024-02-26T11:04:22;11.98;;;8.35;;
66886;SDS011;67239;51.680;5.976;2024-02-26T11:06:51;10.70;;;7.30;;
66886;SDS011;67239;51.680;5.976;2024-02-26T11:09:23;13.25;;;8.43;;
66886;SDS011;67239;51.680;5.976;2024-02-26T11:11:52;10.40;;;6.82;;
66886;SDS011;67239;51.680;5.976;2024-02-26T11:14:22;10.95;;;7.85;;
66886;SDS011;67239;51.680;5.976;2024-02-26T11:16:52;11.07;;;7.57;;
66886;SDS011;67239;51.680;5.976;2024-02-26T11:19:22;10.68;;;6.93;;
66886;SDS011;67239;51.680;5.976;2024-02-26T11:21:53;12.65;;;8.30;;
66886;SDS011;67239;51.680;5.976;2024-02-26T11:24:20;11.63;;;6.60;;
66886;SDS011;67239;51.680;5.976;2024-02-26T11:26:48;12.10;;;8.27;;
66886;SDS011;67239;51.680;5.976;2024-02-26T11:29:32;14.38;;;8.65;;
66886;SDS011;67239;51.680;5.976;2024-02-26T11:32:10;9.02;;;6.20;;
66886;SDS011;67239;51.680;5.976;2024-02-26T11:34:37;12.35;;;6.70;;
66886;SDS011;67239;51.680;5.976;2024-02-26T11:37:12;12.45;;;7.53;;
66886;SDS011;67239;51.680;5.976;2024-02-26T11:39:42;12.70;;;7.65;;
66886;SDS011;67239;51.680;5.976;2024-02-26T11:42:15;14.95;;;9.75;;
66886;SDS011;67239;51.680;5.976;2024-02-26T11:44:43;12.77;;;6.80;;
66886;SDS011;67239;51.680;5.976;2024-02-26T11:47:12;13.65;;;8.18;;
66886;SDS011;67239;51.680;5.976;2024-02-26T11:49:44;13.02;;;8.10;;
66886;SDS011;67239;51.680;5.976;2024-02-26T11:52:12;11.85;;;7.28;;
66886;SDS011;67239;51.680;5.976;2024-02-26T11:57:22;13.20;;;8.00;;
66886;SDS011;67239;51.680;5.976;2024-02-26T12:02:56;16.52;;;9.38;;
66886;SDS011;67239;51.680;5.976;2024-02-26T12:05:32;17.10;;;10.20;;
66886;SDS011;67239;51.680;5.976;2024-02-26T12:10:35;17.08;;;10.05;;
66886;SDS011;67239;51.680;5.976;2024-02-26T12:13:13;16.90;;;10.10;;
66886;SDS011;67239;51.680;5.976;2024-02-26T12:15:55;17.63;;;9.98;;
66886;SDS011;67239;51.680;5.976;2024-02-26T12:18:25;20.75;;;12.25;;
66886;SDS011;67239;51.680;5.976;2024-02-26T12:20:59;19.17;;;10.48;;
66886;SDS011;67239;51.680;5.976;2024-02-26T12:23:29;23.83;;;12.25;;
66886;SDS011;67239;51.680;5.976;2024-02-26T12:26:00;18.35;;;10.15;;
66886;SDS011;67239;51.680;5.976;2024-02-26T12:28:32;21.65;;;12.82;;
66886;SDS011;67239;51.680;5.976;2024-02-26T12:30:59;18.67;;;10.45;;
66886;SDS011;67239;51.680;5.976;2024-02-26T12:33:27;20.63;;;12.20;;
66886;SDS011;67239;51.680;5.976;2024-02-26T12:35:56;19.05;;;10.93;;
66886;SDS011;67239;51.680;5.976;2024-02-26T12:38:25;25.05;;;14.27;;
66886;SDS011;67239;51.680;5.976;2024-02-26T12:40:54;21.25;;;12.15;;
66886;SDS011;67239;51.680;5.976;2024-02-26T12:43:21;16.10;;;9.85;;
66886;SDS011;67239;51.680;5.976;2024-02-26T12:45:49;23.58;;;13.95;;
66886;SDS011;67239;51.680;5.976;2024-02-26T12:48:17;18.35;;;10.93;;
66886;SDS011;67239;51.680;5.976;2024-02-26T12:50:44;17.90;;;13.35;;
66886;SDS011;67239;51.680;5.976;2024-02-26T12:53:14;18.33;;;10.32;;
66886;SDS011;67239;51.680;5.976;2024-02-26T12:55:42;21.52;;;11.02;;
66886;SDS011;67239;51.680;5.976;2024-02-26T12:58:10;19.55;;;10.57;;
66886;SDS011;67239;51.680;5.976;2024-02-26T13:00:39;20.67;;;10.90;;
66886;SDS011;67239;51.680;5.976;2024-02-26T13:03:07;14.48;;;8.73;;
66886;SDS011;67239;51.680;5.976;2024-02-26T13:05:36;18.42;;;10.45;;
66886;SDS011;67239;51.680;5.976;2024-02-26T13:08:04;15.55;;;9.68;;
66886;SDS011;67239;51.680;5.976;2024-02-26T13:10:36;16.92;;;9.48;;
66886;SDS011;67239;51.680;5.976;2024-02-26T13:13:03;13.70;;;7.97;;
66886;SDS011;67239;51.680;5.976;2024-02-26T13:15:31;17.10;;;9.70;;
66886;SDS011;67239;51.680;5.976;2024-02-26T13:17:59;12.80;;;7.57;;
66886;SDS011;67239;51.680;5.976;2024-02-26T13:20:38;15.15;;;9.02;;
66886;SDS011;67239;51.680;5.976;2024-02-26T13:23:12;15.68;;;9.35;;
66886;SDS011;67239;51.680;5.976;2024-02-26T13:25:39;13.52;;;7.90;;
66886;SDS011;67239;51.680;5.976;2024-02-26T13:30:50;11.38;;;6.97;;
66886;SDS011;67239;51.680;5.976;2024-02-26T13:33:24;11.75;;;7.47;;
66886;SDS011;67239;51.680;5.976;2024-02-26T13:35:54;12.18;;;7.10;;
66886;SDS011;67239;51.680;5.976;2024-02-26T13:38:26;11.77;;;6.32;;
66886;SDS011;67239;51.680;5.976;2024-02-26T13:40:57;12.02;;;7.57;;
66886;SDS011;67239;51.680;5.976;2024-02-26T13:43:24;10.98;;;6.38;;
66886;SDS011;67239;51.680;5.976;2024-02-26T13:45:54;11.73;;;7.05;;
66886;SDS011;67239;51.680;5.976;2024-02-26T13:48:26;10.43;;;6.15;;
66886;SDS011;67239;51.680;5.976;2024-02-26T13:51:13;13.32;;;7.78;;
66886;SDS011;67239;51.680;5.976;2024-02-26T13:53:41;10.15;;;6.53;;
66886;SDS011;67239;51.680;5.976;2024-02-26T13:56:09;11.40;;;7.20;;
66886;SDS011;67239;51.680;5.976;2024-02-26T13:58:36;10.30;;;6.78;;
66886;SDS011;67239;51.680;5.976;2024-02-26T14:01:04;12.40;;;6.65;;
66886;SDS011;67239;51.680;5.976;2024-02-26T14:03:32;11.93;;;7.70;;
66886;SDS011;67239;51.680;5.976;2024-02-26T14:05:59;10.80;;;6.45;;
66886;SDS011;67239;51.680;5.976;2024-02-26T14:08:29;13.55;;;7.80;;
66886;SDS011;67239;51.680;5.976;2024-02-26T14:10:56;8.23;;;6.22;;
66886;SDS011;67239;51.680;5.976;2024-02-26T14:13:24;12.45;;;6.32;;
66886;SDS011;67239;51.680;5.976;2024-02-26T14:15:54;9.73;;;6.07;;
66886;SDS011;67239;51.680;5.976;2024-02-26T14:18:21;9.50;;;6.22;;
66886;SDS011;67239;51.680;5.976;2024-02-26T14:20:48;13.15;;;6.30;;
66886;SDS011;67239;51.680;5.976;2024-02-26T14:23:15;10.38;;;6.00;;
66886;SDS011;67239;51.680;5.976;2024-02-26T14:25:42;13.40;;;7.53;;
66886;SDS011;67239;51.680;5.976;2024-02-26T14:28:10;10.85;;;6.55;;
66886;SDS011;67239;51.680;5.976;2024-02-26T14:30:47;10.85;;;6.72;;
66886;SDS011;67239;51.680;5.976;2024-02-26T14:33:14;8.75;;;5.28;;
66886;SDS011;67239;51.680;5.976;2024-02-26T14:35:41;11.20;;;6.13;;
66886;SDS011;67239;51.680;5.976;2024-02-26T14:38:09;9.57;;;6.03;;
66886;SDS011;67239;51.680;5.976;2024-02-26T14:40:36;11.00;;;6.88;;
66886;SDS011;67239;51.680;5.976;2024-02-26T14:43:04;10.73;;;6.38;;
66886;SDS011;67239;51.680;5.976;2024-02-26T14:45:31;9.30;;;6.05;;
66886;SDS011;67239;51.680;5.976;2024-02-26T14:47:59;10.95;;;7.05;;
66886;SDS011;67239;51.680;5.976;2024-02-26T14:50:26;14.32;;;8.05;;
66886;SDS011;67239;51.680;5.976;2024-02-26T14:52:53;9.15;;;6.10;;
66886;SDS011;67239;51.680;5.976;2024-02-26T14:55:20;11.93;;;6.47;;
66886;SDS011;67239;51.680;5.976;2024-02-26T14:57:47;13.57;;;8.13;;
66886;SDS011;67239;51.680;5.976;2024-02-26T15:00:14;10.55;;;7.00;;
66886;SDS011;67239;51.680;5.976;2024-02-26T15:02:42;12.63;;;7.45;;
66886;SDS011;67239;51.680;5.976;2024-02-26T15:05:09;13.82;;;8.02;;
66886;SDS011;67239;51.680;5.976;2024-02-26T15:07:38;12.02;;;7.82;;
66886;SDS011;67239;51.680;5.976;2024-02-26T15:10:07;12.65;;;7.60;;
66886;SDS011;67239;51.680;5.976;2024-02-26T15:12:35;10.63;;;6.82;;
66886;SDS011;67239;51.680;5.976;2024-02-26T15:15:02;13.35;;;8.43;;
66886;SDS011;67239;51.680;5.976;2024-02-26T15:17:30;15.77;;;7.68;;
66886;SDS011;67239;51.680;5.976;2024-02-26T15:19:59;11.10;;;7.15;;
66886;SDS011;67239;51.680;5.976;2024-02-26T15:22:26;11.65;;;7.30;;
66886;SDS011;67239;51.680;5.976;2024-02-26T15:24:54;14.57;;;8.95;;
66886;SDS011;67239;51.680;5.976;2024-02-26T15:27:21;13.20;;;8.38;;
66886;SDS011;67239;51.680;5.976;2024-02-26T15:29:49;13.18;;;7.50;;
66886;SDS011;67239;51.680;5.976;2024-02-26T15:32:22;11.50;;;7.32;;
66886;SDS011;67239;51.680;5.976;2024-02-26T15:34:51;13.80;;;8.48;;
66886;SDS011;67239;51.680;5.976;2024-02-26T15:37:18;12.70;;;7.10;;
66886;SDS011;67239;51.680;5.976;2024-02-26T15:39:46;10.13;;;6.80;;
66886;SDS011;67239;51.680;5.976;2024-02-26T15:42:15;11.98;;;7.78;;
66886;SDS011;67239;51.680;5.976;2024-02-26T15:44:42;12.85;;;7.68;;
66886;SDS011;67239;51.680;5.976;2024-02-26T15:47:10;13.25;;;8.43;;
66886;SDS011;67239;51.680;5.976;2024-02-26T15:49:37;12.55;;;7.70;;
66886;SDS011;67239;51.680;5.976;2024-02-26T15:52:04;12.48;;;7.88;;
66886;SDS011;67239;51.680;5.976;2024-02-26T15:54:31;11.75;;;7.07;;
66886;SDS011;67239;51.680;5.976;2024-02-26T15:56:59;12.13;;;8.02;;
66886;SDS011;67239;51.680;5.976;2024-02-26T15:59:26;11.73;;;7.47;;
66886;SDS011;67239;51.680;5.976;2024-02-26T16:01:53;11.98;;;7.03;;
66886;SDS011;67239;51.680;5.976;2024-02-26T16:04:21;12.38;;;7.75;;
66886;SDS011;67239;51.680;5.976;2024-02-26T16:06:49;13.07;;;7.78;;
66886;SDS011;67239;51.680;5.976;2024-02-26T16:09:22;12.25;;;6.93;;
66886;SDS011;67239;51.680;5.976;2024-02-26T16:11:50;14.02;;;7.78;;
66886;SDS011;67239;51.680;5.976;2024-02-26T16:17:18;13.60;;;8.13;;
66886;SDS011;67239;51.680;5.976;2024-02-26T16:19:54;11.45;;;7.20;;
66886;SDS011;67239;51.680;5.976;2024-02-26T16:22:21;12.65;;;7.20;;
66886;SDS011;67239;51.680;5.976;2024-02-26T16:24:48;16.52;;;8.63;;
66886;SDS011;67239;51.680;5.976;2024-02-26T16:27:15;12.07;;;7.35;;
66886;SDS011;67239;51.680;5.976;2024-02-26T16:29:43;14.20;;;8.18;;
66886;SDS011;67239;51.680;5.976;2024-02-26T16:32:10;9.77;;;7.07;;
66886;SDS011;67239;51.680;5.976;2024-02-26T16:34:37;15.98;;;8.73;;
66886;SDS011;67239;51.680;5.976;2024-02-26T16:37:09;14.27;;;8.40;;
66886;SDS011;67239;51.680;5.976;2024-02-26T16:42:06;13.10;;;7.60;;
66886;SDS011;67239;51.680;5.976;2024-02-26T16:44:35;13.32;;;8.10;;
66886;SDS011;67239;51.680;5.976;2024-02-26T16:47:04;11.60;;;7.38;;